sensor_id;sensor_type;location;lat;lon;timestamp;temperature;humidity
11991;DHT22;6055;52.522;13.446;2023-05-10T00:00:07;14.20;66.00
11991;DHT22;6055;52.522;13.446;2023-05-10T00:02:34;14.20;66.20
11991;DHT22;6055;52.522;13.446;2023-05-10T00:05:00;14.20;66.60
11991;DHT22;6055;52.522;13.446;2023-05-10T00:07:25;14.20;66.60
11991;DHT22;6055;52.522;13.446;2023-05-10T00:09:51;14.10;66.80
11991;DHT22;6055;52.522;13.446;2023-05-10T00:12:16;14.10;66.90
11991;DHT22;6055;52.522;13.446;2023-05-10T00:14:42;14.10;67.20
11991;DHT22;6055;52.522;13.446;2023-05-10T00:17:07;14.00;66.90
11991;DHT22;6055;52.522;13.446;2023-05-10T00:19:33;14.00;67.20
11991;DHT22;6055;52.522;13.446;2023-05-10T00:21:58;14.00;67.20
11991;DHT22;6055;52.522;13.446;2023-05-10T00:24:23;14.00;67.40
11991;DHT22;6055;52.522;13.446;2023-05-10T00:26:49;14.00;67.30
11991;DHT22;6055;52.522;13.446;2023-05-10T00:29:14;13.90;67.70
11991;DHT22;6055;52.522;13.446;2023-05-10T00:31:40;13.90;67.30
11991;DHT22;6055;52.522;13.446;2023-05-10T00:34:05;13.90;67.90
11991;DHT22;6055;52.522;13.446;2023-05-10T00:36:31;13.80;67.90
11991;DHT22;6055;52.522;13.446;2023-05-10T00:38:57;13.80;68.10
11991;DHT22;6055;52.522;13.446;2023-05-10T00:41:22;13.80;68.00
11991;DHT22;6055;52.522;13.446;2023-05-10T00:43:48;13.70;68.90
11991;DHT22;6055;52.522;13.446;2023-05-10T00:46:14;13.60;68.90
11991;DHT22;6055;52.522;13.446;2023-05-10T00:48:40;13.60;69.00
11991;DHT22;6055;52.522;13.446;2023-05-10T00:51:06;13.60;69.30
11991;DHT22;6055;52.522;13.446;2023-05-10T00:53:32;13.60;69.20
11991;DHT22;6055;52.522;13.446;2023-05-10T00:56:01;13.50;69.60
11991;DHT22;6055;52.522;13.446;2023-05-10T00:58:28;13.40;69.90
11991;DHT22;6055;52.522;13.446;2023-05-10T01:00:55;13.40;70.20
11991;DHT22;6055;52.522;13.446;2023-05-10T01:03:22;13.30;71.00
11991;DHT22;6055;52.522;13.446;2023-05-10T01:05:47;13.30;71.00
11991;DHT22;6055;52.522;13.446;2023-05-10T01:08:13;13.30;71.50
11991;DHT22;6055;52.522;13.446;2023-05-10T01:10:39;13.30;71.60
11991;DHT22;6055;52.522;13.446;2023-05-10T01:13:04;13.20;72.30
11991;DHT22;6055;52.522;13.446;2023-05-10T01:15:30;13.20;72.20
11991;DHT22;6055;52.522;13.446;2023-05-10T01:17:56;13.20;72.50
11991;DHT22;6055;52.522;13.446;2023-05-10T01:20:23;13.20;73.70
11991;DHT22;6055;52.522;13.446;2023-05-10T01:23:13;13.20;72.70
11991;DHT22;6055;52.522;13.446;2023-05-10T01:26:26;13.10;73.50
11991;DHT22;6055;52.522;13.446;2023-05-10T01:32:22;13.00;74.40
11991;DHT22;6055;52.522;13.446;2023-05-10T01:34:35;13.00;74.80
11991;DHT22;6055;52.522;13.446;2023-05-10T01:37:15;12.90;74.80
11991;DHT22;6055;52.522;13.446;2023-05-10T01:39:48;12.90;74.80
11991;DHT22;6055;52.522;13.446;2023-05-10T01:42:20;12.80;75.70
11991;DHT22;6055;52.522;13.446;2023-05-10T01:47:42;12.80;76.40
11991;DHT22;6055;52.522;13.446;2023-05-10T01:50:15;12.70;76.50
11991;DHT22;6055;52.522;13.446;2023-05-10T01:52:42;12.70;76.90
11991;DHT22;6055;52.522;13.446;2023-05-10T01:55:14;12.70;77.70
11991;DHT22;6055;52.522;13.446;2023-05-10T01:57:43;12.70;77.70
11991;DHT22;6055;52.522;13.446;2023-05-10T02:00:09;12.60;78.00
11991;DHT22;6055;52.522;13.446;2023-05-10T02:02:38;12.60;78.20
11991;DHT22;6055;52.522;13.446;2023-05-10T02:05:06;12.50;79.40
11991;DHT22;6055;52.522;13.446;2023-05-10T02:07:35;12.50;79.30
11991;DHT22;6055;52.522;13.446;2023-05-10T02:10:02;12.50;79.50
11991;DHT22;6055;52.522;13.446;2023-05-10T02:12:29;12.50;79.60
11991;DHT22;6055;52.522;13.446;2023-05-10T02:14:56;12.50;80.20
11991;DHT22;6055;52.522;13.446;2023-05-10T02:17:23;12.40;80.00
11991;DHT22;6055;52.522;13.446;2023-05-10T02:19:51;12.40;80.50
11991;DHT22;6055;52.522;13.446;2023-05-10T02:22:18;12.40;80.40
11991;DHT22;6055;52.522;13.446;2023-05-10T02:24:45;12.40;80.80
11991;DHT22;6055;52.522;13.446;2023-05-10T02:27:12;12.30;81.00
11991;DHT22;6055;52.522;13.446;2023-05-10T02:29:39;12.40;80.90
11991;DHT22;6055;52.522;13.446;2023-05-10T02:32:05;12.40;81.30
11991;DHT22;6055;52.522;13.446;2023-05-10T02:34:31;12.30;82.00
11991;DHT22;6055;52.522;13.446;2023-05-10T02:36:58;12.30;82.10
11991;DHT22;6055;52.522;13.446;2023-05-10T02:39:24;12.20;82.00
11991;DHT22;6055;52.522;13.446;2023-05-10T02:41:52;12.20;82.50
11991;DHT22;6055;52.522;13.446;2023-05-10T02:44:19;12.20;82.50
11991;DHT22;6055;52.522;13.446;2023-05-10T02:46:46;12.20;82.50
11991;DHT22;6055;52.522;13.446;2023-05-10T02:49:12;12.20;82.60
11991;DHT22;6055;52.522;13.446;2023-05-10T02:51:41;12.20;82.90
11991;DHT22;6055;52.522;13.446;2023-05-10T02:54:17;12.10;83.30
11991;DHT22;6055;52.522;13.446;2023-05-10T02:56:47;12.10;82.80
11991;DHT22;6055;52.522;13.446;2023-05-10T02:59:15;12.20;82.70
11991;DHT22;6055;52.522;13.446;2023-05-10T03:01:41;12.10;83.00
11991;DHT22;6055;52.522;13.446;2023-05-10T03:04:06;12.10;83.80
11991;DHT22;6055;52.522;13.446;2023-05-10T03:06:32;12.00;83.30
11991;DHT22;6055;52.522;13.446;2023-05-10T03:08:58;12.10;83.90
11991;DHT22;6055;52.522;13.446;2023-05-10T03:14:49;12.00;83.90
11991;DHT22;6055;52.522;13.446;2023-05-10T03:17:31;11.90;84.50
11991;DHT22;6055;52.522;13.446;2023-05-10T03:20:09;11.90;84.50
11991;DHT22;6055;52.522;13.446;2023-05-10T03:22:46;12.00;84.30
11991;DHT22;6055;52.522;13.446;2023-05-10T03:25:15;12.00;84.20
11991;DHT22;6055;52.522;13.446;2023-05-10T03:27:43;11.90;84.00
11991;DHT22;6055;52.522;13.446;2023-05-10T03:30:11;11.90;84.20
11991;DHT22;6055;52.522;13.446;2023-05-10T03:32:37;11.90;85.00
11991;DHT22;6055;52.522;13.446;2023-05-10T03:35:07;11.90;85.30
11991;DHT22;6055;52.522;13.446;2023-05-10T03:37:33;11.80;85.00
11991;DHT22;6055;52.522;13.446;2023-05-10T03:39:59;11.80;85.20
11991;DHT22;6055;52.522;13.446;2023-05-10T03:42:24;11.90;85.20
11991;DHT22;6055;52.522;13.446;2023-05-10T03:44:50;11.80;85.40
11991;DHT22;6055;52.522;13.446;2023-05-10T03:47:18;11.90;85.50
11991;DHT22;6055;52.522;13.446;2023-05-10T03:49:43;11.80;86.20
11991;DHT22;6055;52.522;13.446;2023-05-10T03:52:09;11.90;85.70
11991;DHT22;6055;52.522;13.446;2023-05-10T03:54:34;11.90;85.50
11991;DHT22;6055;52.522;13.446;2023-05-10T03:57:00;11.90;85.40
11991;DHT22;6055;52.522;13.446;2023-05-10T03:59:26;11.80;85.80
11991;DHT22;6055;52.522;13.446;2023-05-10T04:01:52;11.90;86.40
11991;DHT22;6055;52.522;13.446;2023-05-10T04:04:17;11.90;85.40
11991;DHT22;6055;52.522;13.446;2023-05-10T04:06:44;11.80;85.90
11991;DHT22;6055;52.522;13.446;2023-05-10T04:09:10;11.90;86.30
11991;DHT22;6055;52.522;13.446;2023-05-10T04:11:36;11.90;85.50
11991;DHT22;6055;52.522;13.446;2023-05-10T04:14:01;11.90;86.80
11991;DHT22;6055;52.522;13.446;2023-05-10T04:16:26;12.00;85.80
11991;DHT22;6055;52.522;13.446;2023-05-10T04:18:52;12.00;85.40
11991;DHT22;6055;52.522;13.446;2023-05-10T04:21:17;12.00;85.40
11991;DHT22;6055;52.522;13.446;2023-05-10T04:23:43;11.90;85.70
11991;DHT22;6055;52.522;13.446;2023-05-10T04:26:08;11.90;85.60
11991;DHT22;6055;52.522;13.446;2023-05-10T04:28:34;11.90;86.00
11991;DHT22;6055;52.522;13.446;2023-05-10T04:31:03;11.90;85.90
11991;DHT22;6055;52.522;13.446;2023-05-10T04:33:29;11.90;86.00
11991;DHT22;6055;52.522;13.446;2023-05-10T04:35:55;12.00;86.10
11991;DHT22;6055;52.522;13.446;2023-05-10T04:38:21;11.90;85.80
11991;DHT22;6055;52.522;13.446;2023-05-10T04:40:46;12.00;86.00
11991;DHT22;6055;52.522;13.446;2023-05-10T04:43:12;12.00;86.50
11991;DHT22;6055;52.522;13.446;2023-05-10T04:45:37;12.00;86.40
11991;DHT22;6055;52.522;13.446;2023-05-10T04:48:03;12.00;86.20
11991;DHT22;6055;52.522;13.446;2023-05-10T04:50:28;12.10;86.10
11991;DHT22;6055;52.522;13.446;2023-05-10T04:52:54;12.20;85.90
11991;DHT22;6055;52.522;13.446;2023-05-10T04:55:19;12.20;85.40
11991;DHT22;6055;52.522;13.446;2023-05-10T04:57:45;12.30;85.30
11991;DHT22;6055;52.522;13.446;2023-05-10T05:00:11;12.30;85.20
11991;DHT22;6055;52.522;13.446;2023-05-10T05:02:36;12.30;85.70
11991;DHT22;6055;52.522;13.446;2023-05-10T05:05:02;12.40;84.90
11991;DHT22;6055;52.522;13.446;2023-05-10T05:07:27;12.50;84.60
11991;DHT22;6055;52.522;13.446;2023-05-10T05:09:53;12.50;84.80
11991;DHT22;6055;52.522;13.446;2023-05-10T05:12:18;12.50;84.60
11991;DHT22;6055;52.522;13.446;2023-05-10T05:14:44;12.50;84.70
11991;DHT22;6055;52.522;13.446;2023-05-10T05:17:09;12.50;84.50
11991;DHT22;6055;52.522;13.446;2023-05-10T05:19:35;12.50;84.60
11991;DHT22;6055;52.522;13.446;2023-05-10T05:22:01;12.60;84.90
11991;DHT22;6055;52.522;13.446;2023-05-10T05:24:26;12.60;84.80
11991;DHT22;6055;52.522;13.446;2023-05-10T05:26:52;12.70;84.50
11991;DHT22;6055;52.522;13.446;2023-05-10T05:29:17;12.70;84.40
11991;DHT22;6055;52.522;13.446;2023-05-10T05:31:42;12.80;84.10
11991;DHT22;6055;52.522;13.446;2023-05-10T05:34:08;12.80;83.90
11991;DHT22;6055;52.522;13.446;2023-05-10T05:36:36;12.90;84.00
11991;DHT22;6055;52.522;13.446;2023-05-10T05:39:03;12.90;84.10
11991;DHT22;6055;52.522;13.446;2023-05-10T05:41:29;13.00;84.00
11991;DHT22;6055;52.522;13.446;2023-05-10T05:43:54;13.10;83.70
11991;DHT22;6055;52.522;13.446;2023-05-10T05:46:20;13.10;83.40
11991;DHT22;6055;52.522;13.446;2023-05-10T05:48:45;13.20;83.60
11991;DHT22;6055;52.522;13.446;2023-05-10T05:51:11;13.20;83.30
11991;DHT22;6055;52.522;13.446;2023-05-10T05:53:36;13.30;83.60
11991;DHT22;6055;52.522;13.446;2023-05-10T05:56:02;13.30;82.90
11991;DHT22;6055;52.522;13.446;2023-05-10T05:58:28;13.40;82.90
11991;DHT22;6055;52.522;13.446;2023-05-10T06:00:54;13.50;82.50
11991;DHT22;6055;52.522;13.446;2023-05-10T06:03:20;13.50;82.70
11991;DHT22;6055;52.522;13.446;2023-05-10T06:05:45;13.50;82.70
11991;DHT22;6055;52.522;13.446;2023-05-10T06:08:11;13.60;82.80
11991;DHT22;6055;52.522;13.446;2023-05-10T06:10:37;13.60;82.70
11991;DHT22;6055;52.522;13.446;2023-05-10T06:13:02;13.70;82.50
11991;DHT22;6055;52.522;13.446;2023-05-10T06:15:28;13.80;82.50
11991;DHT22;6055;52.522;13.446;2023-05-10T06:17:54;13.90;82.00
11991;DHT22;6055;52.522;13.446;2023-05-10T06:20:19;13.90;82.10
11991;DHT22;6055;52.522;13.446;2023-05-10T06:22:45;14.00;81.60
11991;DHT22;6055;52.522;13.446;2023-05-10T06:25:10;14.10;81.30
11991;DHT22;6055;52.522;13.446;2023-05-10T06:27:36;14.10;80.90
11991;DHT22;6055;52.522;13.446;2023-05-10T06:30:02;14.20;80.90
11991;DHT22;6055;52.522;13.446;2023-05-10T06:32:28;14.20;80.70
11991;DHT22;6055;52.522;13.446;2023-05-10T06:34:53;14.30;80.70
11991;DHT22;6055;52.522;13.446;2023-05-10T06:37:19;14.30;80.80
11991;DHT22;6055;52.522;13.446;2023-05-10T06:39:45;14.30;80.30
11991;DHT22;6055;52.522;13.446;2023-05-10T06:42:10;14.40;80.50
11991;DHT22;6055;52.522;13.446;2023-05-10T06:44:36;14.50;80.90
11991;DHT22;6055;52.522;13.446;2023-05-10T06:47:02;14.50;80.90
11991;DHT22;6055;52.522;13.446;2023-05-10T06:49:27;14.50;80.60
11991;DHT22;6055;52.522;13.446;2023-05-10T06:51:53;14.60;80.00
11991;DHT22;6055;52.522;13.446;2023-05-10T06:54:19;14.60;80.30
11991;DHT22;6055;52.522;13.446;2023-05-10T06:56:44;14.70;80.10
11991;DHT22;6055;52.522;13.446;2023-05-10T06:59:10;14.70;80.30
11991;DHT22;6055;52.522;13.446;2023-05-10T07:01:35;14.80;80.10
11991;DHT22;6055;52.522;13.446;2023-05-10T07:04:01;14.80;79.70
11991;DHT22;6055;52.522;13.446;2023-05-10T07:06:26;14.80;80.10
11991;DHT22;6055;52.522;13.446;2023-05-10T07:08:52;14.90;80.20
11991;DHT22;6055;52.522;13.446;2023-05-10T07:11:20;15.00;80.30
11991;DHT22;6055;52.522;13.446;2023-05-10T07:13:45;15.00;79.70
11991;DHT22;6055;52.522;13.446;2023-05-10T07:16:11;15.10;79.50
11991;DHT22;6055;52.522;13.446;2023-05-10T07:18:37;15.10;79.70
11991;DHT22;6055;52.522;13.446;2023-05-10T07:21:03;15.10;79.60
11991;DHT22;6055;52.522;13.446;2023-05-10T07:23:28;15.20;79.70
11991;DHT22;6055;52.522;13.446;2023-05-10T07:25:55;15.20;79.90
11991;DHT22;6055;52.522;13.446;2023-05-10T07:28:22;15.30;79.70
11991;DHT22;6055;52.522;13.446;2023-05-10T07:30:48;15.40;79.40
11991;DHT22;6055;52.522;13.446;2023-05-10T07:33:14;15.40;79.90
11991;DHT22;6055;52.522;13.446;2023-05-10T07:35:40;15.40;79.30
11991;DHT22;6055;52.522;13.446;2023-05-10T07:38:05;15.50;79.90
11991;DHT22;6055;52.522;13.446;2023-05-10T07:40:31;15.60;79.30
11991;DHT22;6055;52.522;13.446;2023-05-10T07:42:57;15.60;78.70
11991;DHT22;6055;52.522;13.446;2023-05-10T07:45:22;15.70;79.00
11991;DHT22;6055;52.522;13.446;2023-05-10T07:47:48;15.70;78.50
11991;DHT22;6055;52.522;13.446;2023-05-10T07:50:14;15.80;78.20
11991;DHT22;6055;52.522;13.446;2023-05-10T07:52:40;15.90;78.40
11991;DHT22;6055;52.522;13.446;2023-05-10T07:55:06;15.90;78.40
11991;DHT22;6055;52.522;13.446;2023-05-10T07:57:33;16.00;78.50
11991;DHT22;6055;52.522;13.446;2023-05-10T08:00:01;16.00;78.20
11991;DHT22;6055;52.522;13.446;2023-05-10T08:02:27;16.10;78.20
11991;DHT22;6055;52.522;13.446;2023-05-10T08:04:52;16.10;78.50
11991;DHT22;6055;52.522;13.446;2023-05-10T08:07:18;16.20;78.50
11991;DHT22;6055;52.522;13.446;2023-05-10T08:09:43;16.30;77.60
11991;DHT22;6055;52.522;13.446;2023-05-10T08:12:09;16.30;77.50
11991;DHT22;6055;52.522;13.446;2023-05-10T08:14:34;16.40;76.70
11991;DHT22;6055;52.522;13.446;2023-05-10T08:17:02;16.50;76.40
11991;DHT22;6055;52.522;13.446;2023-05-10T08:19:28;16.50;76.80
11991;DHT22;6055;52.522;13.446;2023-05-10T08:21:53;16.60;76.50
11991;DHT22;6055;52.522;13.446;2023-05-10T08:24:21;16.70;76.80
11991;DHT22;6055;52.522;13.446;2023-05-10T08:26:46;16.80;76.00
11991;DHT22;6055;52.522;13.446;2023-05-10T08:29:13;17.00;75.80
11991;DHT22;6055;52.522;13.446;2023-05-10T08:31:38;17.50;75.30
11991;DHT22;6055;52.522;13.446;2023-05-10T08:34:04;18.70;72.70
11991;DHT22;6055;52.522;13.446;2023-05-10T08:36:29;20.10;69.20
11991;DHT22;6055;52.522;13.446;2023-05-10T08:38:55;21.30;66.60
11991;DHT22;6055;52.522;13.446;2023-05-10T08:41:20;22.30;63.50
11991;DHT22;6055;52.522;13.446;2023-05-10T08:43:47;23.30;60.80
11991;DHT22;6055;52.522;13.446;2023-05-10T08:46:16;24.10;59.20
11991;DHT22;6055;52.522;13.446;2023-05-10T08:48:46;24.60;57.20
11991;DHT22;6055;52.522;13.446;2023-05-10T08:51:14;24.80;56.80
11991;DHT22;6055;52.522;13.446;2023-05-10T08:53:40;25.10;56.30
11991;DHT22;6055;52.522;13.446;2023-05-10T08:56:06;25.70;54.90
11991;DHT22;6055;52.522;13.446;2023-05-10T08:58:32;26.00;53.80
11991;DHT22;6055;52.522;13.446;2023-05-10T09:00:57;26.30;53.30
11991;DHT22;6055;52.522;13.446;2023-05-10T09:03:24;26.80;52.00
11991;DHT22;6055;52.522;13.446;2023-05-10T09:05:49;26.70;51.90
11991;DHT22;6055;52.522;13.446;2023-05-10T09:08:15;27.00;52.20
11991;DHT22;6055;52.522;13.446;2023-05-10T09:10:44;26.80;51.30
11991;DHT22;6055;52.522;13.446;2023-05-10T09:13:13;26.80;50.90
11991;DHT22;6055;52.522;13.446;2023-05-10T09:15:40;26.70;51.40
11991;DHT22;6055;52.522;13.446;2023-05-10T09:18:06;26.80;50.80
11991;DHT22;6055;52.522;13.446;2023-05-10T09:20:31;27.20;49.90
11991;DHT22;6055;52.522;13.446;2023-05-10T09:22:57;27.30;49.50
11991;DHT22;6055;52.522;13.446;2023-05-10T09:25:22;27.20;49.40
11991;DHT22;6055;52.522;13.446;2023-05-10T09:27:48;27.50;49.20
11991;DHT22;6055;52.522;13.446;2023-05-10T09:30:24;27.90;48.40
11991;DHT22;6055;52.522;13.446;2023-05-10T09:32:51;27.70;47.90
11991;DHT22;6055;52.522;13.446;2023-05-10T09:35:19;27.30;48.60
11991;DHT22;6055;52.522;13.446;2023-05-10T09:37:46;27.40;48.60
11991;DHT22;6055;52.522;13.446;2023-05-10T09:40:19;27.80;48.50
11991;DHT22;6055;52.522;13.446;2023-05-10T09:45:22;27.80;47.10
11991;DHT22;6055;52.522;13.446;2023-05-10T09:47:47;27.80;47.60
11991;DHT22;6055;52.522;13.446;2023-05-10T09:50:13;27.60;48.00
11991;DHT22;6055;52.522;13.446;2023-05-10T09:52:56;27.60;48.00
11991;DHT22;6055;52.522;13.446;2023-05-10T09:58:01;27.70;48.20
11991;DHT22;6055;52.522;13.446;2023-05-10T10:00:28;27.70;48.20
11991;DHT22;6055;52.522;13.446;2023-05-10T10:02:58;27.90;47.80
11991;DHT22;6055;52.522;13.446;2023-05-10T10:05:33;28.10;47.70
11991;DHT22;6055;52.522;13.446;2023-05-10T10:08:00;28.30;46.60
11991;DHT22;6055;52.522;13.446;2023-05-10T10:10:27;28.10;46.90
11991;DHT22;6055;52.522;13.446;2023-05-10T10:12:53;28.20;47.60
11991;DHT22;6055;52.522;13.446;2023-05-10T10:15:20;28.30;46.60
11991;DHT22;6055;52.522;13.446;2023-05-10T10:17:46;28.20;46.80
11991;DHT22;6055;52.522;13.446;2023-05-10T10:20:13;28.40;46.40
11991;DHT22;6055;52.522;13.446;2023-05-10T10:22:39;28.40;46.10
11991;DHT22;6055;52.522;13.446;2023-05-10T10:25:05;28.60;46.90
11991;DHT22;6055;52.522;13.446;2023-05-10T10:30:17;29.10;46.00
11991;DHT22;6055;52.522;13.446;2023-05-10T10:35:29;29.30;46.10
11991;DHT22;6055;52.522;13.446;2023-05-10T10:37:55;29.40;45.10
11991;DHT22;6055;52.522;13.446;2023-05-10T10:40:32;29.50;45.70
11991;DHT22;6055;52.522;13.446;2023-05-10T10:43:21;29.60;45.90
11991;DHT22;6055;52.522;13.446;2023-05-10T10:46:04;29.60;45.50
11991;DHT22;6055;52.522;13.446;2023-05-10T10:48:33;29.80;45.10
11991;DHT22;6055;52.522;13.446;2023-05-10T10:50:58;29.80;44.70
11991;DHT22;6055;52.522;13.446;2023-05-10T10:53:26;29.70;44.20
11991;DHT22;6055;52.522;13.446;2023-05-10T10:56:06;29.40;44.80
11991;DHT22;6055;52.522;13.446;2023-05-10T10:58:33;29.70;44.80
11991;DHT22;6055;52.522;13.446;2023-05-10T11:01:18;29.40;45.00
11991;DHT22;6055;52.522;13.446;2023-05-10T11:06:35;29.60;46.20
11991;DHT22;6055;52.522;13.446;2023-05-10T11:09:11;29.90;44.80
11991;DHT22;6055;52.522;13.446;2023-05-10T11:11:53;30.10;44.50
11991;DHT22;6055;52.522;13.446;2023-05-10T11:14:21;30.20;44.00
11991;DHT22;6055;52.522;13.446;2023-05-10T11:16:47;30.20;44.00
11991;DHT22;6055;52.522;13.446;2023-05-10T11:19:14;30.30;43.90
11991;DHT22;6055;52.522;13.446;2023-05-10T11:21:51;30.30;44.30
11991;DHT22;6055;52.522;13.446;2023-05-10T11:24:22;30.00;44.50
11991;DHT22;6055;52.522;13.446;2023-05-10T11:26:50;29.70;44.30
11991;DHT22;6055;52.522;13.446;2023-05-10T11:29:16;29.70;45.10
11991;DHT22;6055;52.522;13.446;2023-05-10T11:31:46;29.50;44.60
11991;DHT22;6055;52.522;13.446;2023-05-10T11:34:22;29.60;44.80
11991;DHT22;6055;52.522;13.446;2023-05-10T11:36:51;29.60;44.80
11991;DHT22;6055;52.522;13.446;2023-05-10T11:39:19;29.80;43.70
11991;DHT22;6055;52.522;13.446;2023-05-10T11:41:48;29.50;44.50
11991;DHT22;6055;52.522;13.446;2023-05-10T11:44:14;29.60;43.60
11991;DHT22;6055;52.522;13.446;2023-05-10T11:46:39;29.60;44.20
11991;DHT22;6055;52.522;13.446;2023-05-10T11:49:07;29.90;45.70
11991;DHT22;6055;52.522;13.446;2023-05-10T11:51:36;30.20;43.80
11991;DHT22;6055;52.522;13.446;2023-05-10T11:54:05;30.00;44.00
11991;DHT22;6055;52.522;13.446;2023-05-10T11:56:32;29.80;44.40
11991;DHT22;6055;52.522;13.446;2023-05-10T11:58:58;29.90;44.50
11991;DHT22;6055;52.522;13.446;2023-05-10T12:01:26;29.90;42.90
11991;DHT22;6055;52.522;13.446;2023-05-10T12:03:54;29.90;43.40
11991;DHT22;6055;52.522;13.446;2023-05-10T12:06:20;30.00;44.00
11991;DHT22;6055;52.522;13.446;2023-05-10T12:08:47;30.10;42.90
11991;DHT22;6055;52.522;13.446;2023-05-10T12:11:14;30.00;43.20
11991;DHT22;6055;52.522;13.446;2023-05-10T12:13:43;30.10;43.60
11991;DHT22;6055;52.522;13.446;2023-05-10T12:16:27;30.30;42.30
11991;DHT22;6055;52.522;13.446;2023-05-10T12:18:56;30.50;42.50
11991;DHT22;6055;52.522;13.446;2023-05-10T12:21:22;30.20;41.70
11991;DHT22;6055;52.522;13.446;2023-05-10T12:23:52;30.00;42.60
11991;DHT22;6055;52.522;13.446;2023-05-10T12:26:21;30.00;42.90
11991;DHT22;6055;52.522;13.446;2023-05-10T12:28:47;30.00;41.90
11991;DHT22;6055;52.522;13.446;2023-05-10T12:31:13;30.10;43.00
11991;DHT22;6055;52.522;13.446;2023-05-10T12:33:43;30.10;41.60
11991;DHT22;6055;52.522;13.446;2023-05-10T12:36:10;30.10;41.50
11991;DHT22;6055;52.522;13.446;2023-05-10T12:38:40;30.20;41.00
11991;DHT22;6055;52.522;13.446;2023-05-10T12:41:18;30.40;42.20
11991;DHT22;6055;52.522;13.446;2023-05-10T12:43:44;30.30;43.10
11991;DHT22;6055;52.522;13.446;2023-05-10T12:46:13;30.50;43.10
11991;DHT22;6055;52.522;13.446;2023-05-10T12:48:40;30.40;42.40
11991;DHT22;6055;52.522;13.446;2023-05-10T12:51:07;30.50;42.30
11991;DHT22;6055;52.522;13.446;2023-05-10T12:53:37;30.60;42.70
11991;DHT22;6055;52.522;13.446;2023-05-10T12:56:03;30.10;41.70
11991;DHT22;6055;52.522;13.446;2023-05-10T12:58:31;30.10;41.70
11991;DHT22;6055;52.522;13.446;2023-05-10T13:00:58;30.00;41.60
11991;DHT22;6055;52.522;13.446;2023-05-10T13:03:24;30.00;40.90
11991;DHT22;6055;52.522;13.446;2023-05-10T13:05:49;30.00;41.30
11991;DHT22;6055;52.522;13.446;2023-05-10T13:08:15;30.00;42.10
11991;DHT22;6055;52.522;13.446;2023-05-10T13:10:40;30.20;42.90
11991;DHT22;6055;52.522;13.446;2023-05-10T13:13:06;30.20;42.50
11991;DHT22;6055;52.522;13.446;2023-05-10T13:15:32;30.00;41.40
11991;DHT22;6055;52.522;13.446;2023-05-10T13:17:58;29.80;41.20
11991;DHT22;6055;52.522;13.446;2023-05-10T13:20:25;30.00;40.80
11991;DHT22;6055;52.522;13.446;2023-05-10T13:22:50;30.00;40.70
11991;DHT22;6055;52.522;13.446;2023-05-10T13:25:16;30.30;40.00
11991;DHT22;6055;52.522;13.446;2023-05-10T13:27:44;30.60;40.30
11991;DHT22;6055;52.522;13.446;2023-05-10T13:38:01;30.30;40.50
11991;DHT22;6055;52.522;13.446;2023-05-10T14:35:11;29.90;38.70
11991;DHT22;6055;52.522;13.446;2023-05-10T14:37:38;29.70;40.90
11991;DHT22;6055;52.522;13.446;2023-05-10T14:40:04;29.70;39.70
11991;DHT22;6055;52.522;13.446;2023-05-10T14:42:29;29.70;40.20
11991;DHT22;6055;52.522;13.446;2023-05-10T14:44:56;29.90;39.50
11991;DHT22;6055;52.522;13.446;2023-05-10T14:47:21;30.10;38.80
11991;DHT22;6055;52.522;13.446;2023-05-10T14:49:47;30.20;38.20
11991;DHT22;6055;52.522;13.446;2023-05-10T14:52:12;30.30;38.90
11991;DHT22;6055;52.522;13.446;2023-05-10T14:54:39;30.00;39.50
11991;DHT22;6055;52.522;13.446;2023-05-10T14:57:05;29.80;39.60
11991;DHT22;6055;52.522;13.446;2023-05-10T14:59:31;30.00;39.70
11991;DHT22;6055;52.522;13.446;2023-05-10T15:01:57;30.00;40.00
11991;DHT22;6055;52.522;13.446;2023-05-10T15:04:22;30.00;38.90
11991;DHT22;6055;52.522;13.446;2023-05-10T15:06:48;29.90;40.20
11991;DHT22;6055;52.522;13.446;2023-05-10T15:09:13;29.80;39.40
11991;DHT22;6055;52.522;13.446;2023-05-10T15:11:38;29.80;39.00
11991;DHT22;6055;52.522;13.446;2023-05-10T15:14:04;29.70;40.20
11991;DHT22;6055;52.522;13.446;2023-05-10T15:16:30;29.70;39.40
11991;DHT22;6055;52.522;13.446;2023-05-10T15:18:55;29.60;39.10
11991;DHT22;6055;52.522;13.446;2023-05-10T15:21:20;29.60;39.80
11991;DHT22;6055;52.522;13.446;2023-05-10T15:23:46;29.50;39.90
11991;DHT22;6055;52.522;13.446;2023-05-10T15:26:12;29.60;40.70
11991;DHT22;6055;52.522;13.446;2023-05-10T15:28:37;29.60;40.50
11991;DHT22;6055;52.522;13.446;2023-05-10T15:31:03;29.10;40.60
11991;DHT22;6055;52.522;13.446;2023-05-10T15:33:28;28.60;40.70
11991;DHT22;6055;52.522;13.446;2023-05-10T15:35:54;28.40;40.10
11991;DHT22;6055;52.522;13.446;2023-05-10T15:38:20;27.90;39.80
11991;DHT22;6055;52.522;13.446;2023-05-10T15:40:45;27.30;40.50
11991;DHT22;6055;52.522;13.446;2023-05-10T15:43:11;27.00;41.90
11991;DHT22;6055;52.522;13.446;2023-05-10T15:45:36;26.70;42.20
11991;DHT22;6055;52.522;13.446;2023-05-10T15:48:02;26.40;42.40
11991;DHT22;6055;52.522;13.446;2023-05-10T15:50:27;26.20;43.80
11991;DHT22;6055;52.522;13.446;2023-05-10T15:52:53;26.10;43.50
11991;DHT22;6055;52.522;13.446;2023-05-10T15:55:19;25.90;43.70
11991;DHT22;6055;52.522;13.446;2023-05-10T15:57:44;25.80;44.90
11991;DHT22;6055;52.522;13.446;2023-05-10T16:00:13;25.60;44.90
11991;DHT22;6055;52.522;13.446;2023-05-10T16:02:41;25.60;44.50
11991;DHT22;6055;52.522;13.446;2023-05-10T16:05:07;25.80;44.50
11991;DHT22;6055;52.522;13.446;2023-05-10T16:07:34;26.20;44.70
11991;DHT22;6055;52.522;13.446;2023-05-10T16:09:59;26.70;44.50
11991;DHT22;6055;52.522;13.446;2023-05-10T16:12:29;27.00;44.50
11991;DHT22;6055;52.522;13.446;2023-05-10T16:14:54;27.30;43.70
11991;DHT22;6055;52.522;13.446;2023-05-10T16:17:20;27.20;43.20
11991;DHT22;6055;52.522;13.446;2023-05-10T16:19:45;27.00;43.60
11991;DHT22;6055;52.522;13.446;2023-05-10T16:22:11;26.60;43.70
11991;DHT22;6055;52.522;13.446;2023-05-10T16:24:37;26.20;44.30
11991;DHT22;6055;52.522;13.446;2023-05-10T16:27:02;25.60;45.00
11991;DHT22;6055;52.522;13.446;2023-05-10T16:29:28;25.30;45.40
11991;DHT22;6055;52.522;13.446;2023-05-10T16:31:53;24.90;46.00
11991;DHT22;6055;52.522;13.446;2023-05-10T16:34:19;24.70;46.60
11991;DHT22;6055;52.522;13.446;2023-05-10T16:36:48;24.80;47.10
11991;DHT22;6055;52.522;13.446;2023-05-10T16:39:13;24.90;47.20
11991;DHT22;6055;52.522;13.446;2023-05-10T16:41:39;24.90;46.50
11991;DHT22;6055;52.522;13.446;2023-05-10T16:44:04;25.00;46.10
11991;DHT22;6055;52.522;13.446;2023-05-10T16:46:30;25.10;47.70
11991;DHT22;6055;52.522;13.446;2023-05-10T16:48:56;25.10;50.30
11991;DHT22;6055;52.522;13.446;2023-05-10T16:51:23;25.10;51.20
11991;DHT22;6055;52.522;13.446;2023-05-10T16:53:49;25.00;51.50